createdAt,value
2024-02-13T00:01:41.938Z,7.34
2024-02-13T00:05:44.951Z,7.37
2024-02-13T00:09:47.193Z,7.32
2024-02-13T00:13:49.334Z,7.30
2024-02-13T00:17:52.719Z,7.30
2024-02-13T00:21:54.875Z,7.12
2024-02-13T00:25:56.966Z,7.15
2024-02-13T00:29:59.031Z,7.03
2024-02-13T00:34:00.783Z,6.95
2024-02-13T00:38:02.820Z,7.02
2024-02-13T00:42:06.532Z,6.97
2024-02-13T00:46:10.674Z,6.87
2024-02-13T00:50:15.869Z,6.89
2024-02-13T00:54:18.229Z,6.96
2024-02-13T00:58:20.606Z,6.84
2024-02-13T01:02:23.856Z,6.92
2024-02-13T01:06:25.985Z,6.77
2024-02-13T01:10:28.032Z,6.55
2024-02-13T01:14:30.070Z,6.51
2024-02-13T01:18:33.828Z,6.46
2024-02-13T01:22:36.544Z,6.54
2024-02-13T01:26:39.119Z,6.46
2024-02-13T01:30:41.353Z,6.46
2024-02-13T01:34:43.835Z,6.51
2024-02-13T01:38:46.092Z,6.41
2024-02-13T01:42:50.611Z,6.44
2024-02-13T01:46:53.722Z,6.42
2024-02-13T01:51:01.856Z,6.37
2024-02-13T01:55:04.268Z,6.37
2024-02-13T01:59:06.996Z,6.44
2024-02-13T02:03:15.980Z,6.41
2024-02-13T02:07:19.010Z,6.42
2024-02-13T02:11:21.277Z,6.46
2024-02-13T02:15:23.303Z,6.30
2024-02-13T02:19:25.466Z,6.19
2024-02-13T02:23:28.037Z,6.32
2024-02-13T02:27:30.289Z,6.25
2024-02-13T02:31:32.626Z,6.15
2024-02-13T02:35:35.026Z,6.06
2024-02-13T02:39:37.110Z,5.93
2024-02-13T02:43:39.360Z,5.95
2024-02-13T02:47:41.502Z,5.99
2024-02-13T02:51:44.921Z,5.95
2024-02-13T02:55:46.996Z,5.98
2024-02-13T02:59:49.271Z,6.09
2024-02-13T03:03:51.634Z,6.12
2024-02-13T03:07:53.842Z,6.15
2024-02-13T03:11:56.732Z,6.16
2024-02-13T03:15:59.016Z,5.99
2024-02-13T03:20:02.177Z,6.02
2024-02-13T03:24:06.356Z,6.10
2024-02-13T03:28:08.824Z,6.02
2024-02-13T03:32:11.047Z,5.95
2024-02-13T03:36:17.932Z,5.99
2024-02-13T03:40:20.195Z,5.92
2024-02-13T03:44:23.884Z,6.06
2024-02-13T03:48:26.281Z,6.03
2024-02-13T03:52:28.526Z,5.99
2024-02-13T03:56:30.719Z,5.97
2024-02-13T04:00:34.032Z,5.91
2024-02-13T04:04:36.586Z,5.95
2024-02-13T04:08:40.330Z,5.86
2024-02-13T04:12:42.447Z,5.77
2024-02-13T04:16:45.471Z,5.75
2024-02-13T04:20:47.698Z,5.76
2024-02-13T04:24:50.305Z,5.78
2024-02-13T04:28:52.391Z,5.74
2024-02-13T04:32:54.674Z,5.66
2024-02-13T04:36:56.787Z,5.62
2024-02-13T04:40:58.973Z,5.58
2024-02-13T04:45:01.825Z,5.56
2024-02-13T04:49:04.065Z,5.55
2024-02-13T04:53:06.358Z,5.50
2024-02-13T04:57:08.381Z,5.56
2024-02-13T05:01:13.330Z,5.53
2024-02-13T05:05:34.605Z,5.44
2024-02-13T05:09:36.968Z,5.56
2024-02-13T05:13:40.066Z,5.41
2024-02-13T05:17:42.733Z,5.43
2024-02-13T05:21:44.967Z,5.23
2024-02-13T05:25:46.886Z,5.16
2024-02-13T05:29:49.448Z,5.22
2024-02-13T05:33:53.402Z,5.20
2024-02-13T05:37:55.747Z,5.14
2024-02-13T05:41:58.869Z,5.08
2024-02-13T05:46:01.140Z,5.03
2024-02-13T05:50:05.112Z,5.09
2024-02-13T05:54:07.583Z,5.03
2024-02-13T05:58:10.096Z,5.10
2024-02-13T06:02:12.152Z,5.14
2024-02-13T06:06:15.943Z,5.15
2024-02-13T06:10:18.265Z,5.22
2024-02-13T06:14:20.497Z,5.12
2024-02-13T06:18:24.175Z,5.30
2024-02-13T06:22:26.499Z,5.23
2024-02-13T06:26:28.802Z,5.22
2024-02-13T06:30:33.182Z,5.27
2024-02-13T06:34:37.670Z,5.23
2024-02-13T06:38:39.914Z,5.28
2024-02-13T06:42:42.200Z,5.36
2024-02-13T06:46:44.354Z,5.30
2024-02-13T06:50:46.504Z,5.24
2024-02-13T06:54:50.788Z,5.18
2024-02-13T06:58:53.396Z,5.28
2024-02-13T07:02:56.183Z,5.20
2024-02-13T07:07:08.762Z,5.20
2024-02-13T07:11:20.846Z,5.40
2024-02-13T07:15:23.303Z,5.32
2024-02-13T07:19:26.784Z,5.43
2024-02-13T07:23:29.196Z,5.44
2024-02-13T07:27:31.704Z,5.37
2024-02-13T07:31:36.743Z,5.62
2024-02-13T07:35:39.096Z,5.58
2024-02-13T07:39:41.572Z,5.69
2024-02-13T07:43:43.853Z,5.79
2024-02-13T07:47:46.133Z,5.81
2024-02-13T07:51:49.900Z,5.72
2024-02-13T07:55:52.086Z,5.88
2024-02-13T07:59:57.304Z,5.92
2024-02-13T08:03:59.975Z,5.89
2024-02-13T08:08:03.772Z,6.09
2024-02-13T08:12:07.970Z,6.22
2024-02-13T08:16:12.476Z,6.34
2024-02-13T08:20:14.805Z,6.25
2024-02-13T08:24:19.349Z,6.33
2024-02-13T08:28:23.711Z,6.47
2024-02-13T08:32:28.157Z,6.48
2024-02-13T08:36:30.907Z,6.27
2024-02-13T08:40:32.981Z,6.36
2024-02-13T08:44:36.169Z,6.43
2024-02-13T08:48:38.783Z,6.56
2024-02-13T08:52:41.066Z,6.59
2024-02-13T08:56:44.025Z,6.78
2024-02-13T09:00:46.376Z,6.73
2024-02-13T09:04:51.417Z,6.69
2024-02-13T09:08:53.357Z,6.77
2024-02-13T09:12:55.692Z,6.70
2024-02-13T09:17:00.458Z,6.66
2024-02-13T09:21:02.949Z,6.79
2024-02-13T09:25:05.823Z,6.78
2024-02-13T09:29:07.925Z,6.69
2024-02-13T09:33:11.078Z,6.85
2024-02-13T09:37:14.263Z,6.71
2024-02-13T09:41:16.484Z,7.04
2024-02-13T09:45:18.995Z,7.07
2024-02-13T09:49:23.218Z,6.99
2024-02-13T09:53:30.264Z,7.12
2024-02-13T09:57:32.566Z,7.03
2024-02-13T10:01:35.470Z,7.14
2024-02-13T10:05:37.780Z,7.06
2024-02-13T10:09:39.912Z,7.07
2024-02-13T10:13:47.039Z,7.12
2024-02-13T10:17:52.475Z,7.26
2024-02-13T10:22:06.713Z,7.10
2024-02-13T10:26:09.595Z,6.97
2024-02-13T10:30:21.337Z,6.97
2024-02-13T10:34:23.432Z,7.01
2024-02-13T10:38:29.118Z,7.07
2024-02-13T10:42:38.525Z,7.26
2024-02-13T10:46:41.955Z,7.42
2024-02-13T10:50:44.851Z,7.31
2024-02-13T10:54:49.411Z,7.25
2024-02-13T10:58:51.682Z,7.19
2024-02-13T11:02:55.754Z,7.14
2024-02-13T11:06:58.219Z,7.10
2024-02-13T11:11:08.180Z,7.10
2024-02-13T11:15:15.260Z,7.03
2024-02-13T11:19:23.791Z,7.01
2024-02-13T11:23:29.919Z,6.95
2024-02-13T11:27:32.765Z,7.17
2024-02-13T11:31:35.306Z,7.44
2024-02-13T11:35:58.073Z,7.58
2024-02-13T11:40:00.536Z,7.63
2024-02-13T11:44:12.397Z,7.66
2024-02-13T11:48:18.353Z,7.50
2024-02-13T11:52:22.236Z,6.67
2024-02-13T11:56:24.463Z,6.19
2024-02-13T12:00:27.421Z,5.98
2024-02-13T12:04:30.923Z,5.82
2024-02-13T12:08:41.906Z,5.72
2024-02-13T12:12:44.236Z,5.98
2024-02-13T12:16:46.470Z,6.12
2024-02-13T12:20:51.121Z,6.20
2024-02-13T12:24:53.361Z,6.46
2024-02-13T12:28:58.809Z,6.54
2024-02-13T12:33:08.313Z,6.74
2024-02-13T12:37:16.398Z,6.86
2024-02-13T12:41:19.272Z,7.00
2024-02-13T12:45:22.506Z,6.99
2024-02-13T12:49:25.078Z,6.67
2024-02-13T12:53:28.113Z,7.00
2024-02-13T12:57:32.101Z,7.02
2024-02-13T13:01:39.177Z,7.16
2024-02-13T13:05:44.893Z,7.27
2024-02-13T13:09:48.044Z,7.16
2024-02-13T13:13:50.925Z,7.07
2024-02-13T13:17:55.381Z,6.95
2024-02-13T13:21:59.208Z,6.81
2024-02-13T13:26:02.405Z,6.29
2024-02-13T13:30:05.747Z,6.09
2024-02-13T13:34:10.547Z,6.03
2024-02-13T13:38:21.223Z,5.81
2024-02-13T13:42:23.404Z,5.66
2024-02-13T13:46:26.883Z,5.56
2024-02-13T13:50:29.080Z,5.34
2024-02-13T13:54:31.193Z,5.42
2024-02-13T13:58:33.605Z,5.36
2024-02-13T14:02:39.600Z,5.40
2024-02-13T14:06:41.852Z,5.38
2024-02-13T14:10:46.183Z,5.40
2024-02-13T14:14:48.518Z,5.50
2024-02-13T14:18:50.799Z,5.64
2024-02-13T14:22:55.316Z,5.90
2024-02-13T14:26:57.648Z,6.08
2024-02-13T14:30:59.937Z,6.14
2024-02-13T14:35:03.071Z,6.13
2024-02-13T14:39:05.390Z,6.13
2024-02-13T14:43:08.658Z,6.06
2024-02-13T14:47:11.088Z,6.03
2024-02-13T14:51:19.405Z,6.14
2024-02-13T14:55:21.928Z,6.05
2024-02-13T14:59:26.539Z,6.06
2024-02-13T15:03:29.035Z,6.03
2024-02-13T15:07:31.495Z,5.87
2024-02-13T15:11:34.535Z,5.82
2024-02-13T15:15:37.344Z,5.79
2024-02-13T15:19:41.543Z,5.97
2024-02-13T15:23:45.006Z,5.91
2024-02-13T15:27:47.196Z,5.94
2024-02-13T15:31:49.686Z,5.87
2024-02-13T15:36:06.095Z,5.86
2024-02-13T15:40:27.962Z,5.73
2024-02-13T15:44:48.769Z,5.68
2024-02-13T15:48:53.199Z,5.62
2024-02-13T15:52:56.472Z,5.62
2024-02-13T15:56:59.189Z,5.55
2024-02-13T16:01:02.776Z,5.47
2024-02-13T16:05:05.466Z,5.53
2024-02-13T16:09:07.651Z,5.61
2024-02-13T16:13:11.480Z,5.55
2024-02-13T16:17:13.585Z,5.47
2024-02-13T16:21:15.819Z,5.53
2024-02-13T16:25:19.801Z,5.45
2024-02-13T16:29:24.528Z,5.47
2024-02-13T16:33:26.896Z,5.40
2024-02-13T16:37:32.311Z,5.45
2024-02-13T16:41:34.476Z,5.37
2024-02-13T16:45:36.995Z,5.41
2024-02-13T16:49:39.222Z,5.37
2024-02-13T16:53:42.388Z,5.40
2024-02-13T16:57:46.199Z,5.36
2024-02-13T17:01:48.258Z,5.38
2024-02-13T17:05:51.625Z,5.34
2024-02-13T17:09:53.743Z,5.29
2024-02-13T17:13:55.907Z,5.25
2024-02-13T17:17:58.669Z,5.39
2024-02-13T17:22:00.850Z,5.34
2024-02-13T17:26:03.157Z,5.26
2024-02-13T17:30:08.842Z,5.34
2024-02-13T17:34:11.225Z,5.26
2024-02-13T17:38:13.839Z,5.30
2024-02-13T17:42:16.825Z,5.24
2024-02-13T17:46:18.971Z,5.23
2024-02-13T17:50:21.550Z,5.24
2024-02-13T17:54:29.211Z,5.14
2024-02-13T17:58:35.312Z,5.14
2024-02-13T18:02:40.654Z,5.13
2024-02-13T18:06:43.723Z,5.15
2024-02-13T18:10:45.872Z,5.23
2024-02-13T18:14:48.141Z,5.22
2024-02-13T18:18:50.963Z,5.14
2024-02-13T18:22:55.250Z,5.13
2024-02-13T18:26:58.036Z,5.04
2024-02-13T18:31:00.312Z,5.07
2024-02-13T18:35:02.599Z,5.08
2024-02-13T18:39:04.767Z,4.94
2024-02-13T18:43:06.909Z,4.95
2024-02-13T18:47:11.272Z,5.06
2024-02-13T18:51:15.731Z,5.04
2024-02-13T18:55:18.631Z,5.02
2024-02-13T18:59:21.172Z,5.03
2024-02-13T19:03:23.622Z,5.07
2024-02-13T19:07:25.739Z,4.96
2024-02-13T19:11:28.234Z,5.03
2024-02-13T19:15:30.421Z,5.13
2024-02-13T19:19:33.604Z,5.10
2024-02-13T19:23:35.744Z,5.07
2024-02-13T19:27:38.558Z,5.07
2024-02-13T19:31:42.411Z,5.12
2024-02-13T19:35:46.195Z,5.12
2024-02-13T19:39:48.768Z,5.12
2024-02-13T19:43:51.780Z,5.12
2024-02-13T19:47:54.135Z,5.08
2024-02-13T19:51:57.143Z,5.15
2024-02-13T19:55:59.509Z,5.22
2024-02-13T20:00:04.145Z,5.14
2024-02-13T20:04:07.384Z,5.07
2024-02-13T20:08:10.848Z,5.12
2024-02-13T20:12:13.036Z,5.14
2024-02-13T20:16:15.133Z,5.06
2024-02-13T20:20:17.989Z,5.18
2024-02-13T20:24:20.187Z,5.12
2024-02-13T20:28:22.296Z,5.16
2024-02-13T20:32:25.680Z,5.10
2024-02-13T20:36:27.860Z,5.07
2024-02-13T20:40:30.617Z,5.27
2024-02-13T20:44:32.814Z,5.15
2024-02-13T20:48:35.136Z,5.27
2024-02-13T20:52:38.146Z,5.25
2024-02-13T20:56:40.771Z,5.25
2024-02-13T21:00:44.821Z,5.25
2024-02-13T21:04:48.722Z,5.22
2024-02-13T21:08:52.572Z,5.25
2024-02-13T21:12:58.178Z,5.17
2024-02-13T21:17:00.278Z,5.20
2024-02-13T21:21:21.448Z,5.23
2024-02-13T21:25:24.670Z,5.27
2024-02-13T21:29:27.692Z,5.21
2024-02-13T21:33:30.061Z,5.17
2024-02-13T21:37:33.594Z,5.23
2024-02-13T21:41:36.608Z,5.18
2024-02-13T21:45:38.944Z,5.18
2024-02-13T21:49:41.213Z,5.13
2024-02-13T21:53:48.581Z,5.19
2024-02-13T21:57:50.740Z,5.01
2024-02-13T22:01:52.873Z,4.99
2024-02-13T22:05:55.278Z,4.97
2024-02-13T22:09:57.733Z,4.95
2024-02-13T22:14:01.905Z,5.04
2024-02-13T22:18:04.192Z,4.87
2024-02-13T22:22:06.456Z,4.83
2024-02-13T22:26:08.569Z,4.96
2024-02-13T22:30:13.741Z,4.91
2024-02-13T22:34:16.191Z,5.01
2024-02-13T22:38:18.469Z,5.00
2024-02-13T22:42:20.584Z,4.93
2024-02-13T22:46:26.094Z,4.92
2024-02-13T22:50:29.703Z,4.97
2024-02-13T22:54:32.621Z,5.00
2024-02-13T22:58:34.739Z,4.82
2024-02-13T23:02:37.235Z,5.00
2024-02-13T23:06:43.009Z,4.84
2024-02-13T23:10:45.220Z,4.90
2024-02-13T23:14:47.379Z,4.91
2024-02-13T23:18:50.316Z,4.96
2024-02-13T23:22:52.669Z,5.01
2024-02-13T23:26:54.871Z,4.87
2024-02-13T23:30:56.967Z,4.84
2024-02-13T23:34:59.104Z,4.81
2024-02-13T23:39:01.935Z,4.79
2024-02-13T23:43:06.916Z,4.91
2024-02-13T23:47:09.144Z,4.85
2024-02-13T23:51:11.457Z,4.89
2024-02-13T23:55:14.627Z,4.84
2024-02-13T23:59:16.704Z,4.93
